sensor_id;sensor_type;location;lat;lon;timestamp;P1;durP1;ratioP1;P2;durP2;ratioP2
48703;SDS011;34502;51.296;16.918;2023-01-20T00:00:32;133.75;;;62.13;;
48703;SDS011;34502;51.296;16.918;2023-01-20T00:02:58;146.18;;;68.25;;
48703;SDS011;34502;51.296;16.918;2023-01-20T00:05:24;123.95;;;61.28;;
48703;SDS011;34502;51.296;16.918;2023-01-20T00:07:50;123.30;;;61.80;;
48703;SDS011;34502;51.296;16.918;2023-01-20T00:10:16;120.40;;;57.22;;
48703;SDS011;34502;51.296;16.918;2023-01-20T00:12:42;108.18;;;53.78;;
48703;SDS011;34502;51.296;16.918;2023-01-20T00:15:08;97.35;;;47.78;;
48703;SDS011;34502;51.296;16.918;2023-01-20T00:17:35;104.25;;;51.85;;
48703;SDS011;34502;51.296;16.918;2023-01-20T00:20:01;102.10;;;51.08;;
48703;SDS011;34502;51.296;16.918;2023-01-20T00:22:28;111.43;;;53.78;;
48703;SDS011;34502;51.296;16.918;2023-01-20T00:24:54;131.82;;;63.65;;
48703;SDS011;34502;51.296;16.918;2023-01-20T00:27:20;139.23;;;67.72;;
48703;SDS011;34502;51.296;16.918;2023-01-20T00:29:46;149.65;;;75.60;;
48703;SDS011;34502;51.296;16.918;2023-01-20T00:32:12;142.02;;;74.55;;
48703;SDS011;34502;51.296;16.918;2023-01-20T00:34:38;143.70;;;72.10;;
48703;SDS011;34502;51.296;16.918;2023-01-20T00:37:04;142.32;;;71.18;;
48703;SDS011;34502;51.296;16.918;2023-01-20T00:39:31;140.13;;;70.15;;
48703;SDS011;34502;51.296;16.918;2023-01-20T00:41:57;133.95;;;64.28;;
48703;SDS011;34502;51.296;16.918;2023-01-20T00:44:23;105.47;;;55.17;;
48703;SDS011;34502;51.296;16.918;2023-01-20T00:46:49;120.32;;;57.20;;
48703;SDS011;34502;51.296;16.918;2023-01-20T00:49:15;116.45;;;55.97;;
48703;SDS011;34502;51.296;16.918;2023-01-20T00:51:41;130.10;;;62.95;;
48703;SDS011;34502;51.296;16.918;2023-01-20T00:54:07;132.10;;;63.53;;
48703;SDS011;34502;51.296;16.918;2023-01-20T00:56:33;122.22;;;58.90;;
48703;SDS011;34502;51.296;16.918;2023-01-20T00:58:59;125.93;;;63.33;;
48703;SDS011;34502;51.296;16.918;2023-01-20T01:01:25;128.13;;;62.75;;
48703;SDS011;34502;51.296;16.918;2023-01-20T01:03:52;129.52;;;62.17;;
48703;SDS011;34502;51.296;16.918;2023-01-20T01:06:18;120.45;;;58.95;;
48703;SDS011;34502;51.296;16.918;2023-01-20T01:08:45;126.45;;;62.00;;
48703;SDS011;34502;51.296;16.918;2023-01-20T01:11:11;131.68;;;59.17;;
48703;SDS011;34502;51.296;16.918;2023-01-20T01:13:38;118.28;;;57.42;;
48703;SDS011;34502;51.296;16.918;2023-01-20T01:16:09;134.23;;;61.42;;
48703;SDS011;34502;51.296;16.918;2023-01-20T01:18:37;142.20;;;64.40;;
48703;SDS011;34502;51.296;16.918;2023-01-20T01:21:07;126.95;;;59.42;;
48703;SDS011;34502;51.296;16.918;2023-01-20T01:23:34;120.13;;;56.90;;
48703;SDS011;34502;51.296;16.918;2023-01-20T01:26:00;120.55;;;57.20;;
48703;SDS011;34502;51.296;16.918;2023-01-20T01:28:26;124.97;;;56.83;;
48703;SDS011;34502;51.296;16.918;2023-01-20T01:30:53;125.00;;;58.33;;
48703;SDS011;34502;51.296;16.918;2023-01-20T01:33:19;126.68;;;58.72;;
48703;SDS011;34502;51.296;16.918;2023-01-20T01:35:53;116.90;;;56.30;;
48703;SDS011;34502;51.296;16.918;2023-01-20T01:38:22;106.40;;;52.45;;
48703;SDS011;34502;51.296;16.918;2023-01-20T01:40:49;110.65;;;52.97;;
48703;SDS011;34502;51.296;16.918;2023-01-20T01:43:37;107.93;;;53.40;;
48703;SDS011;34502;51.296;16.918;2023-01-20T01:46:03;108.28;;;53.20;;
48703;SDS011;34502;51.296;16.918;2023-01-20T01:51:11;102.18;;;48.72;;
48703;SDS011;34502;51.296;16.918;2023-01-20T01:53:40;91.05;;;46.80;;
48703;SDS011;34502;51.296;16.918;2023-01-20T01:56:25;90.60;;;50.35;;
48703;SDS011;34502;51.296;16.918;2023-01-20T01:58:53;99.90;;;50.08;;
48703;SDS011;34502;51.296;16.918;2023-01-20T02:01:22;91.00;;;47.80;;
48703;SDS011;34502;51.296;16.918;2023-01-20T02:03:53;91.13;;;48.28;;
48703;SDS011;34502;51.296;16.918;2023-01-20T02:06:23;88.63;;;46.97;;
48703;SDS011;34502;51.296;16.918;2023-01-20T02:08:51;97.82;;;49.65;;
48703;SDS011;34502;51.296;16.918;2023-01-20T02:11:17;87.72;;;48.25;;
48703;SDS011;34502;51.296;16.918;2023-01-20T02:13:43;95.75;;;49.47;;
48703;SDS011;34502;51.296;16.918;2023-01-20T02:24:22;98.75;;;47.72;;
48703;SDS011;34502;51.296;16.918;2023-01-20T02:27:13;91.93;;;49.70;;
48703;SDS011;34502;51.296;16.918;2023-01-20T02:32:34;99.68;;;51.97;;
48703;SDS011;34502;51.296;16.918;2023-01-20T02:35:10;107.03;;;52.45;;
48703;SDS011;34502;51.296;16.918;2023-01-20T02:37:47;113.10;;;52.72;;
48703;SDS011;34502;51.296;16.918;2023-01-20T02:43:33;104.47;;;53.90;;
48703;SDS011;34502;51.296;16.918;2023-01-20T02:48:50;99.82;;;54.17;;
48703;SDS011;34502;51.296;16.918;2023-01-20T02:51:24;106.57;;;54.33;;
48703;SDS011;34502;51.296;16.918;2023-01-20T02:53:58;105.22;;;53.03;;
48703;SDS011;34502;51.296;16.918;2023-01-20T02:56:27;107.68;;;54.00;;
48703;SDS011;34502;51.296;16.918;2023-01-20T02:58:55;95.28;;;52.75;;
48703;SDS011;34502;51.296;16.918;2023-01-20T03:01:52;101.80;;;50.92;;
48703;SDS011;34502;51.296;16.918;2023-01-20T03:04:47;102.70;;;52.83;;
48703;SDS011;34502;51.296;16.918;2023-01-20T03:07:21;107.35;;;54.75;;
48703;SDS011;34502;51.296;16.918;2023-01-20T03:09:49;110.05;;;57.08;;
48703;SDS011;34502;51.296;16.918;2023-01-20T03:12:18;104.32;;;57.25;;
48703;SDS011;34502;51.296;16.918;2023-01-20T03:15:00;106.53;;;55.00;;
48703;SDS011;34502;51.296;16.918;2023-01-20T03:17:26;96.60;;;52.85;;
48703;SDS011;34502;51.296;16.918;2023-01-20T03:19:52;103.72;;;55.55;;
48703;SDS011;34502;51.296;16.918;2023-01-20T03:22:18;102.25;;;55.75;;
48703;SDS011;34502;51.296;16.918;2023-01-20T03:24:45;107.65;;;57.15;;
48703;SDS011;34502;51.296;16.918;2023-01-20T03:27:12;102.68;;;53.97;;
48703;SDS011;34502;51.296;16.918;2023-01-20T03:29:38;99.43;;;53.33;;
48703;SDS011;34502;51.296;16.918;2023-01-20T03:32:04;100.13;;;52.03;;
48703;SDS011;34502;51.296;16.918;2023-01-20T03:34:33;97.00;;;50.92;;
48703;SDS011;34502;51.296;16.918;2023-01-20T03:37:00;96.20;;;50.80;;
48703;SDS011;34502;51.296;16.918;2023-01-20T03:39:27;84.22;;;47.65;;
48703;SDS011;34502;51.296;16.918;2023-01-20T03:42:03;93.25;;;49.67;;
48703;SDS011;34502;51.296;16.918;2023-01-20T03:44:56;89.95;;;48.50;;
48703;SDS011;34502;51.296;16.918;2023-01-20T03:47:26;95.47;;;49.05;;
48703;SDS011;34502;51.296;16.918;2023-01-20T03:55:19;89.50;;;47.92;;
48703;SDS011;34502;51.296;16.918;2023-01-20T03:57:57;98.93;;;49.33;;
48703;SDS011;34502;51.296;16.918;2023-01-20T04:00:45;80.05;;;45.80;;
48703;SDS011;34502;51.296;16.918;2023-01-20T04:03:22;81.07;;;45.25;;
48703;SDS011;34502;51.296;16.918;2023-01-20T04:05:51;84.35;;;47.08;;
48703;SDS011;34502;51.296;16.918;2023-01-20T04:08:17;85.13;;;45.72;;
48703;SDS011;34502;51.296;16.918;2023-01-20T04:10:47;92.03;;;47.85;;
48703;SDS011;34502;51.296;16.918;2023-01-20T04:13:14;96.65;;;51.63;;
48703;SDS011;34502;51.296;16.918;2023-01-20T04:15:41;103.40;;;51.10;;
48703;SDS011;34502;51.296;16.918;2023-01-20T04:18:21;92.28;;;50.15;;
48703;SDS011;34502;51.296;16.918;2023-01-20T04:20:52;104.10;;;55.45;;
48703;SDS011;34502;51.296;16.918;2023-01-20T04:23:31;105.25;;;54.85;;
48703;SDS011;34502;51.296;16.918;2023-01-20T04:26:06;103.05;;;56.65;;
48703;SDS011;34502;51.296;16.918;2023-01-20T04:28:32;113.30;;;58.92;;
48703;SDS011;34502;51.296;16.918;2023-01-20T04:30:58;124.32;;;59.80;;
48703;SDS011;34502;51.296;16.918;2023-01-20T04:33:24;129.55;;;62.00;;
48703;SDS011;34502;51.296;16.918;2023-01-20T04:35:50;140.73;;;64.07;;
48703;SDS011;34502;51.296;16.918;2023-01-20T04:38:16;147.38;;;66.40;;
48703;SDS011;34502;51.296;16.918;2023-01-20T04:40:42;149.45;;;68.68;;
48703;SDS011;34502;51.296;16.918;2023-01-20T04:43:08;160.85;;;69.35;;
48703;SDS011;34502;51.296;16.918;2023-01-20T04:45:36;159.02;;;66.70;;
48703;SDS011;34502;51.296;16.918;2023-01-20T04:48:06;144.02;;;63.92;;
48703;SDS011;34502;51.296;16.918;2023-01-20T04:50:32;142.73;;;61.17;;
48703;SDS011;34502;51.296;16.918;2023-01-20T04:53:05;122.50;;;53.42;;
48703;SDS011;34502;51.296;16.918;2023-01-20T04:55:36;117.30;;;51.50;;
48703;SDS011;34502;51.296;16.918;2023-01-20T04:58:02;108.65;;;48.30;;
48703;SDS011;34502;51.296;16.918;2023-01-20T05:00:28;103.53;;;46.10;;
48703;SDS011;34502;51.296;16.918;2023-01-20T05:02:57;108.22;;;48.40;;
48703;SDS011;34502;51.296;16.918;2023-01-20T05:05:23;111.38;;;49.42;;
48703;SDS011;34502;51.296;16.918;2023-01-20T05:07:53;107.10;;;46.45;;
48703;SDS011;34502;51.296;16.918;2023-01-20T05:10:19;125.38;;;52.67;;
48703;SDS011;34502;51.296;16.918;2023-01-20T05:12:45;94.47;;;42.47;;
48703;SDS011;34502;51.296;16.918;2023-01-20T05:15:11;82.80;;;41.20;;
48703;SDS011;34502;51.296;16.918;2023-01-20T05:17:38;89.75;;;39.30;;
48703;SDS011;34502;51.296;16.918;2023-01-20T05:20:04;73.18;;;36.83;;
48703;SDS011;34502;51.296;16.918;2023-01-20T05:22:30;76.05;;;37.50;;
48703;SDS011;34502;51.296;16.918;2023-01-20T05:24:59;85.88;;;43.50;;
48703;SDS011;34502;51.296;16.918;2023-01-20T05:27:25;110.13;;;53.13;;
48703;SDS011;34502;51.296;16.918;2023-01-20T05:29:51;107.30;;;52.65;;
48703;SDS011;34502;51.296;16.918;2023-01-20T05:32:17;92.60;;;46.83;;
48703;SDS011;34502;51.296;16.918;2023-01-20T05:34:43;92.75;;;45.28;;
48703;SDS011;34502;51.296;16.918;2023-01-20T05:37:09;92.18;;;48.22;;
48703;SDS011;34502;51.296;16.918;2023-01-20T05:39:35;102.97;;;51.88;;
48703;SDS011;34502;51.296;16.918;2023-01-20T05:42:01;112.93;;;53.97;;
48703;SDS011;34502;51.296;16.918;2023-01-20T05:44:28;99.38;;;51.10;;
48703;SDS011;34502;51.296;16.918;2023-01-20T05:46:54;99.00;;;51.05;;
48703;SDS011;34502;51.296;16.918;2023-01-20T05:49:20;100.32;;;48.85;;
48703;SDS011;34502;51.296;16.918;2023-01-20T05:51:46;87.65;;;44.22;;
48703;SDS011;34502;51.296;16.918;2023-01-20T05:54:12;87.95;;;44.80;;
48703;SDS011;34502;51.296;16.918;2023-01-20T05:56:38;84.30;;;42.95;;
48703;SDS011;34502;51.296;16.918;2023-01-20T05:59:04;83.20;;;43.63;;
48703;SDS011;34502;51.296;16.918;2023-01-20T06:01:31;82.03;;;44.50;;
48703;SDS011;34502;51.296;16.918;2023-01-20T06:03:57;81.78;;;43.28;;
48703;SDS011;34502;51.296;16.918;2023-01-20T06:06:23;96.57;;;47.17;;
48703;SDS011;34502;51.296;16.918;2023-01-20T06:08:50;112.00;;;51.78;;
48703;SDS011;34502;51.296;16.918;2023-01-20T06:11:17;125.95;;;57.72;;
48703;SDS011;34502;51.296;16.918;2023-01-20T06:13:45;124.38;;;59.10;;
48703;SDS011;34502;51.296;16.918;2023-01-20T06:16:12;137.43;;;60.65;;
48703;SDS011;34502;51.296;16.918;2023-01-20T06:18:38;160.98;;;69.47;;
48703;SDS011;34502;51.296;16.918;2023-01-20T06:21:04;180.70;;;74.30;;
48703;SDS011;34502;51.296;16.918;2023-01-20T06:23:31;180.63;;;80.15;;
48703;SDS011;34502;51.296;16.918;2023-01-20T06:25:57;242.20;;;100.90;;
48703;SDS011;34502;51.296;16.918;2023-01-20T06:28:31;230.82;;;100.18;;
48703;SDS011;34502;51.296;16.918;2023-01-20T06:31:01;193.55;;;84.57;;
48703;SDS011;34502;51.296;16.918;2023-01-20T06:33:29;130.35;;;60.00;;
48703;SDS011;34502;51.296;16.918;2023-01-20T06:35:55;103.70;;;49.60;;
48703;SDS011;34502;51.296;16.918;2023-01-20T06:38:23;97.82;;;49.33;;
48703;SDS011;34502;51.296;16.918;2023-01-20T06:40:50;102.10;;;52.35;;
48703;SDS011;34502;51.296;16.918;2023-01-20T06:43:21;103.97;;;49.20;;
48703;SDS011;34502;51.296;16.918;2023-01-20T06:45:47;99.60;;;50.53;;
48703;SDS011;34502;51.296;16.918;2023-01-20T06:48:14;104.35;;;52.17;;
48703;SDS011;34502;51.296;16.918;2023-01-20T06:50:40;118.38;;;55.10;;
48703;SDS011;34502;51.296;16.918;2023-01-20T06:53:06;150.52;;;72.65;;
48703;SDS011;34502;51.296;16.918;2023-01-20T06:55:32;149.98;;;69.57;;
48703;SDS011;34502;51.296;16.918;2023-01-20T06:57:58;136.43;;;62.55;;
48703;SDS011;34502;51.296;16.918;2023-01-20T07:00:24;141.73;;;64.15;;
48703;SDS011;34502;51.296;16.918;2023-01-20T07:02:50;135.00;;;63.92;;
48703;SDS011;34502;51.296;16.918;2023-01-20T07:05:16;133.98;;;63.92;;
48703;SDS011;34502;51.296;16.918;2023-01-20T07:07:43;120.07;;;58.00;;
48703;SDS011;34502;51.296;16.918;2023-01-20T07:10:12;134.35;;;61.65;;
48703;SDS011;34502;51.296;16.918;2023-01-20T07:12:38;129.05;;;61.78;;
48703;SDS011;34502;51.296;16.918;2023-01-20T07:15:04;117.07;;;59.13;;
48703;SDS011;34502;51.296;16.918;2023-01-20T07:17:30;119.43;;;59.42;;
48703;SDS011;34502;51.296;16.918;2023-01-20T07:19:57;131.85;;;60.72;;
48703;SDS011;34502;51.296;16.918;2023-01-20T07:22:23;117.13;;;54.13;;
48703;SDS011;34502;51.296;16.918;2023-01-20T07:24:49;113.05;;;54.67;;
48703;SDS011;34502;51.296;16.918;2023-01-20T07:27:15;108.50;;;53.38;;
48703;SDS011;34502;51.296;16.918;2023-01-20T07:29:41;97.30;;;49.78;;
48703;SDS011;34502;51.296;16.918;2023-01-20T07:32:07;103.45;;;52.35;;
48703;SDS011;34502;51.296;16.918;2023-01-20T07:34:34;104.57;;;53.17;;
48703;SDS011;34502;51.296;16.918;2023-01-20T07:37:00;119.28;;;57.95;;
48703;SDS011;34502;51.296;16.918;2023-01-20T07:39:26;116.38;;;57.90;;
48703;SDS011;34502;51.296;16.918;2023-01-20T07:41:52;126.78;;;64.70;;
48703;SDS011;34502;51.296;16.918;2023-01-20T07:44:19;130.80;;;62.53;;
48703;SDS011;34502;51.296;16.918;2023-01-20T07:46:45;128.13;;;63.20;;
48703;SDS011;34502;51.296;16.918;2023-01-20T07:49:11;148.35;;;70.90;;
48703;SDS011;34502;51.296;16.918;2023-01-20T07:51:38;153.73;;;73.68;;
48703;SDS011;34502;51.296;16.918;2023-01-20T07:54:04;140.25;;;70.40;;
48703;SDS011;34502;51.296;16.918;2023-01-20T07:56:30;180.52;;;81.00;;
48703;SDS011;34502;51.296;16.918;2023-01-20T07:58:56;207.68;;;92.28;;
48703;SDS011;34502;51.296;16.918;2023-01-20T08:01:23;207.70;;;92.25;;
48703;SDS011;34502;51.296;16.918;2023-01-20T08:03:54;205.67;;;88.53;;
48703;SDS011;34502;51.296;16.918;2023-01-20T08:06:21;187.75;;;85.43;;
48703;SDS011;34502;51.296;16.918;2023-01-20T08:08:48;214.30;;;92.40;;
48703;SDS011;34502;51.296;16.918;2023-01-20T08:11:16;262.65;;;112.05;;
48703;SDS011;34502;51.296;16.918;2023-01-20T08:13:43;305.42;;;124.53;;
48703;SDS011;34502;51.296;16.918;2023-01-20T08:16:13;309.40;;;127.30;;
48703;SDS011;34502;51.296;16.918;2023-01-20T08:18:40;339.08;;;138.02;;
48703;SDS011;34502;51.296;16.918;2023-01-20T08:21:07;377.58;;;165.88;;
48703;SDS011;34502;51.296;16.918;2023-01-20T08:23:42;376.10;;;170.85;;
48703;SDS011;34502;51.296;16.918;2023-01-20T08:26:08;298.13;;;137.15;;
48703;SDS011;34502;51.296;16.918;2023-01-20T08:28:34;244.65;;;110.28;;
48703;SDS011;34502;51.296;16.918;2023-01-20T08:33:34;162.32;;;77.18;;
48703;SDS011;34502;51.296;16.918;2023-01-20T08:36:17;153.40;;;74.50;;
48703;SDS011;34502;51.296;16.918;2023-01-20T08:38:54;143.65;;;70.30;;
48703;SDS011;34502;51.296;16.918;2023-01-20T08:41:23;146.50;;;71.25;;
48703;SDS011;34502;51.296;16.918;2023-01-20T08:43:51;148.57;;;74.07;;
48703;SDS011;34502;51.296;16.918;2023-01-20T08:46:18;154.35;;;74.53;;
48703;SDS011;34502;51.296;16.918;2023-01-20T08:48:45;139.90;;;71.00;;
48703;SDS011;34502;51.296;16.918;2023-01-20T08:51:13;152.43;;;73.53;;
48703;SDS011;34502;51.296;16.918;2023-01-20T08:53:41;127.22;;;64.93;;
48703;SDS011;34502;51.296;16.918;2023-01-20T08:56:08;118.25;;;57.22;;
48703;SDS011;34502;51.296;16.918;2023-01-20T08:58:35;113.57;;;55.45;;
48703;SDS011;34502;51.296;16.918;2023-01-20T09:01:06;108.80;;;56.15;;
48703;SDS011;34502;51.296;16.918;2023-01-20T09:03:33;117.45;;;55.97;;
48703;SDS011;34502;51.296;16.918;2023-01-20T09:06:02;112.18;;;53.35;;
48703;SDS011;34502;51.296;16.918;2023-01-20T09:08:30;93.07;;;46.95;;
48703;SDS011;34502;51.296;16.918;2023-01-20T09:11:06;112.43;;;53.97;;
48703;SDS011;34502;51.296;16.918;2023-01-20T09:13:37;124.15;;;63.42;;
48703;SDS011;34502;51.296;16.918;2023-01-20T09:16:03;120.82;;;65.38;;
48703;SDS011;34502;51.296;16.918;2023-01-20T09:18:30;137.85;;;69.35;;
48703;SDS011;34502;51.296;16.918;2023-01-20T09:20:57;119.47;;;61.60;;
48703;SDS011;34502;51.296;16.918;2023-01-20T09:23:24;95.43;;;49.50;;
48703;SDS011;34502;51.296;16.918;2023-01-20T09:25:51;62.63;;;34.97;;
48703;SDS011;34502;51.296;16.918;2023-01-20T09:28:17;58.15;;;33.30;;
48703;SDS011;34502;51.296;16.918;2023-01-20T09:30:43;60.75;;;33.33;;
48703;SDS011;34502;51.296;16.918;2023-01-20T09:33:10;50.15;;;27.85;;
48703;SDS011;34502;51.296;16.918;2023-01-20T09:35:37;40.47;;;24.15;;
48703;SDS011;34502;51.296;16.918;2023-01-20T09:38:03;43.72;;;23.80;;
48703;SDS011;34502;51.296;16.918;2023-01-20T09:49:46;33.90;;;19.38;;
48703;SDS011;34502;51.296;16.918;2023-01-20T09:52:49;32.42;;;19.88;;
48703;SDS011;34502;51.296;16.918;2023-01-20T10:00:45;26.45;;;15.55;;
48703;SDS011;34502;51.296;16.918;2023-01-20T10:03:42;27.17;;;15.57;;
48703;SDS011;34502;51.296;16.918;2023-01-20T10:06:23;29.80;;;16.55;;
48703;SDS011;34502;51.296;16.918;2023-01-20T10:12:05;28.88;;;18.08;;
48703;SDS011;34502;51.296;16.918;2023-01-20T10:14:48;34.65;;;20.60;;
48703;SDS011;34502;51.296;16.918;2023-01-20T10:18:02;33.45;;;20.38;;
48703;SDS011;34502;51.296;16.918;2023-01-20T10:20:13;36.95;;;21.60;;
48703;SDS011;34502;51.296;16.918;2023-01-20T10:22:57;37.40;;;21.33;;
48703;SDS011;34502;51.296;16.918;2023-01-20T10:28:25;49.63;;;26.70;;
48703;SDS011;34502;51.296;16.918;2023-01-20T10:30:52;33.55;;;20.48;;
48703;SDS011;34502;51.296;16.918;2023-01-20T10:33:26;50.03;;;25.65;;
48703;SDS011;34502;51.296;16.918;2023-01-20T10:35:54;35.38;;;18.38;;
48703;SDS011;34502;51.296;16.918;2023-01-20T10:40:59;18.92;;;12.85;;
48703;SDS011;34502;51.296;16.918;2023-01-20T10:43:30;26.88;;;14.88;;
48703;SDS011;34502;51.296;16.918;2023-01-20T10:51:15;23.98;;;15.13;;
48703;SDS011;34502;51.296;16.918;2023-01-20T10:56:53;41.38;;;21.52;;
48703;SDS011;34502;51.296;16.918;2023-01-20T10:59:25;28.67;;;18.25;;
48703;SDS011;34502;51.296;16.918;2023-01-20T11:01:53;32.67;;;18.15;;
48703;SDS011;34502;51.296;16.918;2023-01-20T11:04:22;26.77;;;17.30;;
48703;SDS011;34502;51.296;16.918;2023-01-20T11:06:50;24.80;;;15.07;;
48703;SDS011;34502;51.296;16.918;2023-01-20T11:09:41;26.38;;;16.30;;
48703;SDS011;34502;51.296;16.918;2023-01-20T11:12:17;30.35;;;18.60;;
48703;SDS011;34502;51.296;16.918;2023-01-20T11:14:52;38.55;;;23.15;;
48703;SDS011;34502;51.296;16.918;2023-01-20T11:17:20;43.50;;;24.77;;
48703;SDS011;34502;51.296;16.918;2023-01-20T11:19:50;32.25;;;19.73;;
48703;SDS011;34502;51.296;16.918;2023-01-20T11:24:54;26.42;;;16.98;;
48703;SDS011;34502;51.296;16.918;2023-01-20T11:27:41;27.77;;;16.60;;
48703;SDS011;34502;51.296;16.918;2023-01-20T11:30:28;26.00;;;16.13;;
48703;SDS011;34502;51.296;16.918;2023-01-20T11:33:16;28.77;;;16.70;;
48703;SDS011;34502;51.296;16.918;2023-01-20T11:36:02;24.88;;;17.42;;
48703;SDS011;34502;51.296;16.918;2023-01-20T11:38:46;28.65;;;16.77;;
48703;SDS011;34502;51.296;16.918;2023-01-20T11:41:17;22.33;;;15.48;;
48703;SDS011;34502;51.296;16.918;2023-01-20T11:43:45;28.80;;;16.88;;
48703;SDS011;34502;51.296;16.918;2023-01-20T11:48:46;35.33;;;20.48;;
48703;SDS011;34502;51.296;16.918;2023-01-20T11:51:23;34.85;;;19.85;;
48703;SDS011;34502;51.296;16.918;2023-01-20T11:53:50;30.63;;;18.92;;
48703;SDS011;34502;51.296;16.918;2023-01-20T11:56:36;30.65;;;18.70;;
48703;SDS011;34502;51.296;16.918;2023-01-20T11:59:21;21.70;;;14.18;;
48703;SDS011;34502;51.296;16.918;2023-01-20T12:07:41;27.92;;;18.48;;
48703;SDS011;34502;51.296;16.918;2023-01-20T12:10:20;30.77;;;19.30;;
48703;SDS011;34502;51.296;16.918;2023-01-20T12:13:00;35.15;;;20.20;;
48703;SDS011;34502;51.296;16.918;2023-01-20T12:15:33;27.20;;;17.33;;
48703;SDS011;34502;51.296;16.918;2023-01-20T12:18:06;26.10;;;16.95;;
48703;SDS011;34502;51.296;16.918;2023-01-20T12:20:45;23.75;;;16.48;;
48703;SDS011;34502;51.296;16.918;2023-01-20T12:23:22;31.15;;;19.13;;
48703;SDS011;34502;51.296;16.918;2023-01-20T12:25:56;32.25;;;21.10;;
48703;SDS011;34502;51.296;16.918;2023-01-20T12:28:27;53.92;;;30.85;;
48703;SDS011;34502;51.296;16.918;2023-01-20T12:31:03;40.40;;;24.98;;
48703;SDS011;34502;51.296;16.918;2023-01-20T12:33:36;35.03;;;20.33;;
48703;SDS011;34502;51.296;16.918;2023-01-20T13:06:12;30.20;;;18.75;;
48703;SDS011;34502;51.296;16.918;2023-01-20T13:14:11;26.38;;;18.58;;
48703;SDS011;34502;51.296;16.918;2023-01-20T13:19:44;65.68;;;36.28;;
48703;SDS011;34502;51.296;16.918;2023-01-20T13:22:20;43.90;;;26.33;;
48703;SDS011;34502;51.296;16.918;2023-01-20T13:24:49;40.92;;;26.45;;
48703;SDS011;34502;51.296;16.918;2023-01-20T13:27:19;38.17;;;23.90;;
48703;SDS011;34502;51.296;16.918;2023-01-20T13:29:55;43.47;;;26.50;;
48703;SDS011;34502;51.296;16.918;2023-01-20T13:34:59;36.75;;;23.98;;
48703;SDS011;34502;51.296;16.918;2023-01-20T13:37:31;45.97;;;24.52;;
48703;SDS011;34502;51.296;16.918;2023-01-20T13:40:01;43.35;;;27.00;;
48703;SDS011;34502;51.296;16.918;2023-01-20T13:42:29;46.67;;;27.95;;
48703;SDS011;34502;51.296;16.918;2023-01-20T13:47:50;45.35;;;26.63;;
48703;SDS011;34502;51.296;16.918;2023-01-20T13:50:30;41.70;;;26.02;;
48703;SDS011;34502;51.296;16.918;2023-01-20T13:58:14;43.05;;;28.85;;
48703;SDS011;34502;51.296;16.918;2023-01-20T14:00:40;46.75;;;29.05;;
48703;SDS011;34502;51.296;16.918;2023-01-20T14:03:19;43.97;;;26.92;;
48703;SDS011;34502;51.296;16.918;2023-01-20T14:05:51;56.45;;;34.40;;
48703;SDS011;34502;51.296;16.918;2023-01-20T14:08:28;72.80;;;46.28;;
48703;SDS011;34502;51.296;16.918;2023-01-20T14:11:06;71.43;;;44.65;;
48703;SDS011;34502;51.296;16.918;2023-01-20T14:13:38;68.22;;;41.17;;
48703;SDS011;34502;51.296;16.918;2023-01-20T14:16:05;66.07;;;40.10;;
48703;SDS011;34502;51.296;16.918;2023-01-20T14:18:42;75.32;;;40.15;;
48703;SDS011;34502;51.296;16.918;2023-01-20T14:21:16;61.45;;;35.72;;
48703;SDS011;34502;51.296;16.918;2023-01-20T14:23:47;64.05;;;37.42;;
48703;SDS011;34502;51.296;16.918;2023-01-20T14:26:27;58.03;;;35.10;;
48703;SDS011;34502;51.296;16.918;2023-01-20T14:28:55;75.63;;;42.67;;
48703;SDS011;34502;51.296;16.918;2023-01-20T14:31:34;64.15;;;37.40;;
48703;SDS011;34502;51.296;16.918;2023-01-20T14:34:22;66.70;;;38.30;;
48703;SDS011;34502;51.296;16.918;2023-01-20T14:36:56;72.45;;;37.97;;
48703;SDS011;34502;51.296;16.918;2023-01-20T14:39:25;62.40;;;35.65;;
48703;SDS011;34502;51.296;16.918;2023-01-20T14:41:55;63.33;;;37.72;;
48703;SDS011;34502;51.296;16.918;2023-01-20T14:44:24;66.70;;;38.35;;
48703;SDS011;34502;51.296;16.918;2023-01-20T14:46:52;82.35;;;46.08;;
48703;SDS011;34502;51.296;16.918;2023-01-20T14:49:25;75.85;;;41.55;;
48703;SDS011;34502;51.296;16.918;2023-01-20T14:51:57;67.15;;;38.70;;
48703;SDS011;34502;51.296;16.918;2023-01-20T14:54:34;67.00;;;38.17;;
48703;SDS011;34502;51.296;16.918;2023-01-20T14:57:11;66.57;;;37.35;;
48703;SDS011;34502;51.296;16.918;2023-01-20T15:02:47;96.50;;;48.13;;
48703;SDS011;34502;51.296;16.918;2023-01-20T15:05:22;90.72;;;44.78;;
48703;SDS011;34502;51.296;16.918;2023-01-20T15:08:10;99.40;;;48.40;;
48703;SDS011;34502;51.296;16.918;2023-01-20T15:13:25;122.88;;;55.92;;
48703;SDS011;34502;51.296;16.918;2023-01-20T15:16:04;120.18;;;56.35;;
48703;SDS011;34502;51.296;16.918;2023-01-20T15:18:36;93.20;;;50.17;;
48703;SDS011;34502;51.296;16.918;2023-01-20T15:23:51;91.30;;;50.72;;
48703;SDS011;34502;51.296;16.918;2023-01-20T15:28:54;80.75;;;46.35;;
48703;SDS011;34502;51.296;16.918;2023-01-20T15:31:21;83.00;;;48.00;;
48703;SDS011;34502;51.296;16.918;2023-01-20T15:33:47;88.55;;;51.00;;
48703;SDS011;34502;51.296;16.918;2023-01-20T15:38:52;78.30;;;44.63;;
48703;SDS011;34502;51.296;16.918;2023-01-20T15:41:19;81.85;;;47.70;;
48703;SDS011;34502;51.296;16.918;2023-01-20T15:43:45;87.65;;;51.28;;
48703;SDS011;34502;51.296;16.918;2023-01-20T15:46:13;85.45;;;49.47;;
48703;SDS011;34502;51.296;16.918;2023-01-20T15:48:41;81.75;;;48.45;;
48703;SDS011;34502;51.296;16.918;2023-01-20T15:51:11;100.25;;;55.65;;
48703;SDS011;34502;51.296;16.918;2023-01-20T15:53:39;89.57;;;49.17;;
48703;SDS011;34502;51.296;16.918;2023-01-20T15:56:08;89.22;;;50.67;;
48703;SDS011;34502;51.296;16.918;2023-01-20T15:58:38;94.70;;;55.38;;
48703;SDS011;34502;51.296;16.918;2023-01-20T16:01:04;98.45;;;53.35;;
48703;SDS011;34502;51.296;16.918;2023-01-20T16:03:30;99.53;;;54.35;;
48703;SDS011;34502;51.296;16.918;2023-01-20T16:05:59;88.47;;;51.05;;
48703;SDS011;34502;51.296;16.918;2023-01-20T16:08:28;103.55;;;55.13;;
48703;SDS011;34502;51.296;16.918;2023-01-20T16:10:59;91.68;;;52.15;;
48703;SDS011;34502;51.296;16.918;2023-01-20T16:13:25;104.97;;;57.35;;
48703;SDS011;34502;51.296;16.918;2023-01-20T16:15:51;105.03;;;55.10;;
48703;SDS011;34502;51.296;16.918;2023-01-20T16:18:18;107.68;;;56.20;;
48703;SDS011;34502;51.296;16.918;2023-01-20T16:20:45;94.20;;;53.85;;
48703;SDS011;34502;51.296;16.918;2023-01-20T16:23:12;94.22;;;53.80;;
48703;SDS011;34502;51.296;16.918;2023-01-20T16:25:38;94.70;;;52.00;;
48703;SDS011;34502;51.296;16.918;2023-01-20T16:28:15;95.82;;;53.00;;
48703;SDS011;34502;51.296;16.918;2023-01-20T16:30:43;98.30;;;54.38;;
48703;SDS011;34502;51.296;16.918;2023-01-20T16:33:17;99.78;;;55.20;;